createdAt,value
2023-02-11T00:01:00.357Z,17.23
2023-02-11T00:03:27.398Z,20.17
2023-02-11T00:06:06.033Z,20.80
2023-02-11T00:08:37.217Z,19.73
2023-02-11T00:11:05.107Z,22.23
2023-02-11T00:13:31.965Z,21.03
2023-02-11T00:15:58.980Z,21.87
2023-02-11T00:18:25.841Z,16.67
2023-02-11T00:20:52.783Z,20.60
2023-02-11T00:23:19.669Z,20.03
2023-02-11T00:25:46.560Z,22.67
2023-02-11T00:28:13.557Z,23.67
2023-02-11T00:30:41.098Z,18.43
2023-02-11T00:33:08.899Z,17.30
2023-02-11T00:35:38.685Z,17.53
2023-02-11T00:38:08.034Z,26.20
2023-02-11T00:40:34.915Z,21.40
2023-02-11T00:43:03.777Z,18.73
2023-02-11T00:45:30.847Z,17.13
2023-02-11T00:47:58.200Z,15.73
2023-02-11T00:50:25.228Z,22.73
2023-02-11T00:52:52.163Z,18.77
2023-02-11T00:55:19.333Z,15.87
2023-02-11T00:57:46.554Z,16.80
2023-02-11T01:00:16.832Z,15.00
2023-02-11T01:02:45.055Z,18.53
2023-02-11T01:05:11.994Z,15.40
2023-02-11T01:07:38.987Z,18.73
2023-02-11T01:10:06.265Z,16.37
2023-02-11T01:12:36.164Z,19.47
2023-02-11T01:15:04.160Z,20.47
2023-02-11T01:17:34.194Z,23.43
2023-02-11T01:20:06.027Z,23.30
2023-02-11T01:22:34.405Z,26.27
2023-02-11T01:25:01.275Z,22.50
2023-02-11T01:27:29.752Z,24.27
2023-02-11T01:29:57.868Z,24.50
2023-02-11T01:32:24.759Z,26.33
2023-02-11T01:34:54.048Z,26.07
2023-02-11T01:37:21.051Z,29.27
2023-02-11T01:39:48.319Z,23.17
2023-02-11T01:42:21.083Z,24.87
2023-02-11T01:44:52.587Z,25.70
2023-02-11T01:47:21.039Z,23.90
2023-02-11T01:49:57.064Z,28.23
2023-02-11T01:52:26.873Z,20.00
2023-02-11T01:55:16.709Z,23.83
2023-02-11T01:57:47.681Z,21.53
2023-02-11T02:00:14.775Z,22.33
2023-02-11T02:03:04.161Z,21.90
2023-02-11T02:05:46.640Z,24.93
2023-02-11T02:08:34.804Z,21.00
2023-02-11T02:11:03.170Z,22.40
2023-02-11T02:13:32.317Z,21.97
2023-02-11T02:16:22.077Z,22.10
2023-02-11T02:19:22.566Z,20.40
2023-02-11T02:22:11.041Z,19.57
2023-02-11T02:25:01.075Z,20.23
2023-02-11T02:27:39.973Z,16.80
2023-02-11T02:30:38.516Z,16.80
2023-02-11T02:33:24.454Z,19.33
2023-02-11T02:36:03.037Z,19.80
2023-02-11T02:38:48.786Z,20.13
2023-02-11T02:41:19.049Z,18.93
2023-02-11T02:43:49.298Z,20.10
2023-02-11T02:46:23.996Z,17.40
2023-02-11T02:48:53.401Z,21.10
2023-02-11T02:51:44.712Z,22.57
2023-02-11T02:54:39.220Z,23.50
2023-02-11T02:57:30.998Z,21.57
2023-02-11T03:00:19.416Z,20.77
2023-02-11T03:02:58.330Z,17.27
2023-02-11T03:05:40.439Z,20.00
2023-02-11T03:08:24.083Z,16.17
2023-02-11T03:10:53.807Z,20.20
2023-02-11T03:13:25.202Z,19.97
2023-02-11T03:15:55.686Z,17.17
2023-02-11T03:18:26.156Z,18.23
2023-02-11T03:20:56.280Z,13.57
2023-02-11T03:23:30.875Z,20.60
2023-02-11T03:26:31.358Z,18.67
2023-02-11T03:29:04.238Z,16.03
2023-02-11T03:31:45.056Z,17.20
2023-02-11T03:34:38.020Z,16.57
2023-02-11T03:37:08.019Z,16.27
2023-02-11T03:39:47.696Z,19.53
2023-02-11T03:42:16.459Z,23.87
2023-02-11T03:44:53.795Z,19.30
2023-02-11T03:47:25.838Z,24.67
2023-02-11T03:49:54.724Z,23.90
2023-02-11T03:52:24.822Z,20.17
2023-02-11T03:54:55.642Z,17.60
2023-02-11T03:57:22.598Z,16.50
2023-02-11T03:59:58.364Z,15.20
2023-02-11T04:02:30.316Z,17.00
2023-02-11T04:04:57.627Z,18.77
2023-02-11T04:07:25.471Z,18.33
2023-02-11T04:09:52.991Z,17.30
2023-02-11T04:12:19.987Z,16.77
2023-02-11T04:14:46.837Z,16.20
2023-02-11T04:17:13.814Z,18.30
2023-02-11T04:19:40.726Z,16.53
2023-02-11T04:22:08.233Z,15.87
2023-02-11T04:24:35.511Z,19.10
2023-02-11T04:27:02.632Z,19.10
2023-02-11T04:29:29.858Z,20.77
2023-02-11T04:31:56.764Z,20.47
2023-02-11T04:34:24.596Z,20.93
2023-02-11T04:36:51.618Z,20.03
2023-02-11T04:39:18.756Z,22.00
2023-02-11T04:41:45.840Z,23.23
2023-02-11T04:44:12.769Z,19.57
2023-02-11T04:46:39.665Z,24.47
2023-02-11T04:49:06.585Z,23.83
2023-02-11T04:51:33.541Z,21.63
2023-02-11T04:54:00.489Z,27.20
2023-02-11T04:56:27.464Z,21.93
2023-02-11T04:58:54.431Z,16.90
2023-02-11T05:01:21.972Z,18.80
2023-02-11T05:03:49.406Z,23.77
2023-02-11T05:06:16.425Z,21.17
2023-02-11T05:08:43.460Z,21.40
2023-02-11T05:11:17.199Z,19.77
2023-02-11T05:13:44.215Z,22.67
2023-02-11T05:16:11.460Z,20.57
2023-02-11T05:18:39.238Z,25.80
2023-02-11T05:21:10.426Z,23.30
2023-02-11T05:23:37.435Z,26.93
2023-02-11T05:26:04.513Z,26.47
2023-02-11T05:28:32.559Z,28.77
2023-02-11T05:30:59.558Z,26.13
2023-02-11T05:33:26.543Z,26.90
2023-02-11T05:36:08.512Z,29.97
2023-02-11T05:38:36.395Z,22.37
2023-02-11T05:41:05.277Z,19.10
2023-02-11T05:43:32.459Z,26.20
2023-02-11T05:45:59.494Z,23.33
2023-02-11T05:48:26.438Z,17.97
2023-02-11T05:50:53.345Z,17.30
2023-02-11T05:53:20.251Z,18.33
2023-02-11T05:55:47.264Z,19.87
2023-02-11T05:58:14.150Z,17.47
2023-02-11T06:00:41.043Z,15.67
2023-02-11T06:03:08.154Z,17.27
2023-02-11T06:05:35.068Z,13.90
2023-02-11T06:08:01.923Z,27.30
2023-02-11T06:10:28.862Z,18.53
2023-02-11T06:12:55.776Z,15.73
2023-02-11T06:15:22.606Z,16.53
2023-02-11T06:17:49.437Z,17.47
2023-02-11T06:20:16.570Z,13.70
2023-02-11T06:22:43.451Z,14.43
2023-02-11T06:25:11.281Z,18.47
2023-02-11T06:27:38.632Z,12.37
2023-02-11T06:30:07.139Z,18.83
2023-02-11T06:32:49.587Z,16.17
2023-02-11T06:35:16.614Z,21.90
2023-02-11T06:37:43.942Z,23.37
2023-02-11T06:40:11.742Z,15.60
2023-02-11T06:42:39.986Z,15.80
2023-02-11T06:45:09.604Z,24.30
2023-02-11T06:47:37.303Z,22.37
2023-02-11T06:50:09.595Z,16.80
2023-02-11T06:52:36.959Z,18.97
2023-02-11T06:55:04.092Z,18.63
2023-02-11T06:57:41.188Z,14.93
2023-02-11T07:00:09.571Z,16.07
2023-02-11T07:02:37.080Z,19.00
2023-02-11T07:05:06.934Z,18.90
2023-02-11T07:07:34.485Z,18.50
2023-02-11T07:10:03.262Z,17.73
2023-02-11T07:12:31.452Z,21.03
2023-02-11T07:14:58.391Z,20.10
2023-02-11T07:17:25.339Z,33.87
2023-02-11T07:19:52.232Z,33.07
2023-02-11T07:22:19.226Z,27.97
2023-02-11T07:24:46.407Z,22.37
2023-02-11T07:27:13.319Z,19.80
2023-02-11T07:29:42.491Z,16.63
2023-02-11T07:32:09.804Z,17.50
2023-02-11T07:34:38.373Z,43.70
2023-02-11T07:37:05.592Z,19.33
2023-02-11T07:39:33.062Z,22.93
2023-02-11T07:42:00.724Z,28.10
2023-02-11T07:44:28.271Z,19.40
2023-02-11T07:46:55.533Z,18.83
2023-02-11T07:49:25.826Z,35.77
2023-02-11T07:51:53.724Z,26.60
2023-02-11T07:54:20.963Z,18.80
2023-02-11T07:56:48.074Z,16.90
2023-02-11T07:59:15.054Z,17.20
2023-02-11T08:01:42.029Z,16.57
2023-02-11T08:04:08.936Z,17.47
2023-02-11T08:06:40.202Z,15.47
2023-02-11T08:09:09.506Z,20.87
2023-02-11T08:11:36.844Z,21.40
2023-02-11T08:14:03.865Z,17.03
2023-02-11T08:16:33.822Z,15.37
2023-02-11T08:19:04.528Z,14.13
2023-02-11T08:21:31.445Z,19.40
2023-02-11T08:23:58.650Z,22.43
2023-02-11T08:26:29.689Z,16.80
2023-02-11T08:28:57.766Z,20.53
2023-02-11T08:31:34.504Z,15.10
2023-02-11T08:34:02.681Z,26.07
2023-02-11T08:36:33.055Z,14.97
2023-02-11T08:39:18.222Z,21.77
2023-02-11T08:41:59.225Z,22.13
2023-02-11T08:44:26.470Z,20.40
2023-02-11T08:46:53.986Z,21.70
2023-02-11T08:49:23.030Z,23.57
2023-02-11T08:51:50.403Z,15.70
2023-02-11T08:54:18.096Z,16.00
2023-02-11T08:56:45.737Z,24.50
2023-02-11T08:59:17.189Z,14.77
2023-02-11T09:01:44.447Z,18.57
2023-02-11T09:04:11.506Z,16.07
2023-02-11T09:06:38.774Z,17.40
2023-02-11T09:09:05.750Z,13.93
2023-02-11T09:11:35.658Z,15.57
2023-02-11T09:14:03.983Z,16.23
2023-02-11T09:16:33.875Z,12.33
2023-02-11T09:19:02.115Z,16.40
2023-02-11T09:21:30.471Z,17.33
2023-02-11T09:23:57.558Z,18.20
2023-02-11T09:26:27.551Z,21.43
2023-02-11T09:28:56.193Z,18.63
2023-02-11T09:31:25.557Z,15.87
2023-02-11T09:33:55.589Z,13.07
2023-02-11T09:36:25.386Z,19.20
2023-02-11T09:38:53.405Z,14.50
2023-02-11T09:41:23.091Z,18.93
2023-02-11T09:43:56.929Z,13.47
2023-02-11T09:46:25.870Z,10.57
2023-02-11T09:48:55.350Z,12.23
2023-02-11T09:51:34.396Z,15.07
2023-02-11T09:54:07.903Z,11.83
2023-02-11T09:56:34.861Z,11.50
2023-02-11T09:59:02.054Z,16.90
2023-02-11T10:01:47.163Z,9.90
2023-02-11T10:04:57.922Z,16.87
2023-02-11T10:07:48.797Z,15.43
2023-02-11T10:10:24.852Z,16.13
2023-02-11T10:13:16.202Z,16.67
2023-02-11T10:15:48.550Z,12.60
2023-02-11T10:18:46.124Z,16.33
2023-02-11T10:21:28.528Z,11.10
2023-02-11T10:24:00.335Z,11.97
2023-02-11T10:26:31.990Z,10.33
2023-02-11T10:29:05.758Z,12.83
2023-02-11T10:31:45.021Z,12.03
2023-02-11T10:34:14.305Z,11.23
2023-02-11T10:36:44.301Z,12.43
2023-02-11T10:39:16.484Z,14.07
2023-02-11T10:42:08.995Z,11.40
2023-02-11T10:44:43.782Z,12.17
2023-02-11T10:47:21.244Z,15.77
2023-02-11T10:49:49.032Z,9.10
2023-02-11T10:52:23.987Z,9.90
2023-02-11T10:54:57.762Z,7.17
2023-02-11T10:57:30.496Z,11.57
2023-02-11T11:00:00.611Z,7.30
2023-02-11T11:02:34.489Z,8.20
2023-02-11T11:05:07.054Z,10.97
2023-02-11T11:07:34.466Z,8.03
2023-02-11T11:10:25.055Z,7.43
2023-02-11T11:12:52.165Z,8.90
2023-02-11T11:15:23.635Z,10.33
2023-02-11T11:18:20.894Z,9.83
2023-02-11T11:21:00.323Z,6.33
2023-02-11T11:23:29.638Z,11.10
2023-02-11T11:26:05.586Z,15.67
2023-02-11T11:28:43.500Z,11.47
2023-02-11T11:31:35.642Z,11.33
2023-02-11T11:34:23.321Z,8.97
2023-02-11T11:36:50.983Z,7.53
2023-02-11T11:39:21.087Z,12.63
2023-02-11T11:41:57.504Z,8.63
2023-02-11T11:44:24.492Z,11.97
2023-02-11T11:47:07.584Z,11.60
2023-02-11T11:49:59.382Z,9.73
2023-02-11T11:52:32.441Z,9.30
2023-02-11T11:55:13.185Z,9.20
2023-02-11T11:57:40.560Z,10.03
2023-02-11T12:00:15.612Z,12.10
2023-02-11T12:03:20.985Z,9.67
2023-02-11T12:06:13.407Z,9.10
2023-02-11T12:09:07.965Z,14.40
2023-02-11T12:11:43.835Z,9.20
2023-02-11T12:14:25.607Z,17.27
2023-02-11T12:16:55.156Z,9.77
2023-02-11T12:19:32.265Z,8.67
2023-02-11T12:22:11.984Z,7.60
2023-02-11T12:24:49.277Z,16.10
2023-02-11T12:27:22.082Z,11.93
2023-02-11T12:30:13.827Z,7.07
2023-02-11T12:32:47.003Z,6.27
2023-02-11T12:35:16.965Z,9.73
2023-02-11T12:38:04.181Z,11.33
2023-02-11T12:41:01.356Z,6.53
2023-02-11T12:43:37.735Z,6.60
2023-02-11T12:46:26.083Z,6.43
2023-02-11T12:49:01.030Z,5.70
2023-02-11T12:51:38.081Z,4.67
2023-02-11T12:54:31.767Z,5.70
2023-02-11T12:57:13.666Z,3.97
2023-02-11T13:00:13.187Z,7.73
2023-02-11T13:03:04.977Z,5.90
2023-02-11T13:05:53.124Z,5.67
2023-02-11T13:08:24.996Z,8.07
2023-02-11T13:11:07.089Z,6.77
2023-02-11T13:14:05.507Z,7.27
2023-02-11T13:16:37.461Z,6.17
2023-02-11T13:19:13.637Z,6.93
2023-02-11T13:22:11.310Z,6.47
2023-02-11T13:24:52.764Z,5.63
2023-02-11T13:27:45.734Z,9.07
2023-02-11T13:30:34.757Z,10.00
2023-02-11T13:33:03.265Z,7.33
2023-02-11T13:39:37.127Z,7.90
2023-02-11T13:42:04.808Z,5.63
2023-02-11T13:44:34.706Z,6.90
2023-02-11T13:47:05.033Z,8.87
2023-02-11T13:49:36.224Z,9.67
2023-02-11T13:52:06.449Z,7.23
2023-02-11T13:54:40.958Z,6.50
2023-02-11T13:57:20.095Z,6.80
2023-02-11T13:59:53.479Z,6.73
2023-02-11T14:02:47.436Z,8.67
2023-02-11T14:05:48.894Z,7.37
2023-02-11T14:08:43.343Z,9.33
2023-02-11T14:11:49.313Z,9.03
2023-02-11T14:14:33.545Z,11.07
2023-02-11T14:17:03.497Z,13.10
2023-02-11T14:19:45.598Z,11.43
2023-02-11T14:22:47.851Z,10.73
2023-02-11T14:25:25.557Z,14.03
2023-02-11T14:27:57.918Z,7.57
2023-02-11T14:30:55.411Z,12.67
2023-02-11T14:33:43.773Z,9.43
2023-02-11T14:36:32.725Z,7.67
2023-02-11T14:39:28.841Z,9.73
2023-02-11T14:42:00.551Z,9.77
2023-02-11T14:44:30.396Z,7.50
2023-02-11T14:46:58.126Z,10.13
2023-02-11T14:49:33.573Z,6.30
2023-02-11T14:52:07.526Z,13.60
2023-02-11T14:54:35.310Z,11.57
2023-02-11T14:57:21.473Z,11.20
2023-02-11T15:00:07.716Z,13.53
2023-02-11T15:02:37.314Z,10.77
2023-02-11T15:05:27.398Z,10.30
2023-02-11T15:08:03.262Z,18.13
2023-02-11T15:10:38.126Z,13.23
2023-02-11T15:13:05.922Z,18.23
2023-02-11T15:15:35.882Z,21.33
2023-02-11T15:18:04.285Z,20.57
2023-02-11T15:20:35.852Z,23.47
2023-02-11T15:23:07.798Z,25.07
2023-02-11T15:25:43.009Z,31.40
2023-02-11T15:28:31.020Z,28.03
2023-02-11T15:31:01.746Z,29.57
2023-02-11T15:33:32.939Z,29.53
2023-02-11T15:36:02.790Z,35.00
2023-02-11T15:38:30.441Z,40.77
2023-02-11T15:41:03.506Z,33.37
2023-02-11T15:43:47.341Z,34.10
2023-02-11T15:46:21.261Z,26.20
2023-02-11T15:48:49.454Z,28.60
2023-02-11T15:51:40.020Z,33.10
2023-02-11T15:54:18.957Z,38.20
2023-02-11T15:56:50.007Z,29.50
2023-02-11T15:59:27.257Z,35.17
2023-02-11T16:01:55.078Z,27.13
2023-02-11T16:05:06.319Z,23.17
2023-02-11T16:07:50.246Z,21.73
2023-02-11T16:10:24.101Z,16.10
2023-02-11T16:13:11.177Z,20.83
2023-02-11T16:15:50.947Z,14.83
2023-02-11T16:18:38.429Z,14.40
2023-02-11T16:21:15.866Z,11.20
2023-02-11T16:23:49.353Z,12.73
2023-02-11T16:26:34.024Z,11.47
2023-02-11T16:29:05.037Z,15.00
2023-02-11T16:31:43.306Z,16.87
2023-02-11T16:34:28.282Z,16.90
2023-02-11T16:36:55.676Z,21.20
2023-02-11T16:39:22.980Z,26.37
2023-02-11T16:41:51.868Z,25.47
2023-02-11T16:44:18.831Z,23.03
2023-02-11T16:46:46.080Z,24.77
2023-02-11T16:49:22.686Z,23.07
2023-02-11T16:51:50.846Z,21.23
2023-02-11T16:54:18.914Z,27.37
2023-02-11T16:56:46.295Z,23.03
2023-02-11T16:59:13.452Z,22.50
2023-02-11T17:01:42.093Z,25.77
2023-02-11T17:04:31.568Z,21.40
2023-02-11T17:06:58.865Z,29.20
2023-02-11T17:09:30.597Z,31.83
2023-02-11T17:11:58.234Z,40.97
2023-02-11T17:14:25.182Z,36.67
2023-02-11T17:16:54.710Z,36.93
2023-02-11T17:19:21.850Z,40.60
2023-02-11T17:21:51.716Z,32.30
2023-02-11T17:24:20.624Z,26.90
2023-02-11T17:26:48.662Z,22.43
2023-02-11T17:29:20.993Z,21.60
2023-02-11T17:31:48.283Z,25.10
2023-02-11T17:34:16.621Z,30.17
2023-02-11T17:36:44.023Z,26.90
2023-02-11T17:39:11.088Z,28.30
2023-02-11T17:41:39.024Z,26.83
2023-02-11T17:44:07.709Z,30.33
2023-02-11T17:46:35.547Z,38.47
2023-02-11T17:49:03.815Z,31.73
2023-02-11T17:51:36.621Z,30.90
2023-02-11T17:54:11.025Z,31.57
2023-02-11T17:56:38.490Z,42.33
2023-02-11T17:59:06.512Z,37.43
2023-02-11T18:01:34.003Z,39.37
2023-02-11T18:04:01.841Z,42.20
2023-02-11T18:06:29.290Z,45.47
2023-02-11T18:08:58.037Z,42.33
2023-02-11T18:11:25.986Z,46.33
2023-02-11T18:13:54.460Z,42.47
2023-02-11T18:16:22.430Z,58.43
2023-02-11T18:18:50.134Z,84.17
2023-02-11T18:21:20.122Z,92.60
2023-02-11T18:23:47.893Z,61.80
2023-02-11T18:26:16.400Z,51.73
2023-02-11T18:28:45.849Z,49.83
2023-02-11T18:31:13.901Z,38.73
2023-02-11T18:33:42.249Z,29.50
2023-02-11T18:36:14.366Z,26.67
2023-02-11T18:38:47.138Z,29.00
2023-02-11T18:41:14.508Z,32.73
2023-02-11T18:43:43.016Z,148.30
2023-02-11T18:46:12.683Z,44.07
2023-02-11T18:48:40.429Z,34.50
2023-02-11T18:51:13.205Z,29.70
2023-02-11T18:53:40.125Z,39.13
2023-02-11T18:56:10.731Z,43.00
2023-02-11T18:58:38.091Z,41.57
2023-02-11T19:01:17.588Z,53.13
2023-02-11T19:03:45.190Z,52.63
2023-02-11T19:06:20.013Z,56.43
2023-02-11T19:08:47.434Z,57.53
2023-02-11T19:11:18.700Z,50.97
2023-02-11T19:13:51.346Z,55.73
2023-02-11T19:16:19.866Z,46.93
2023-02-11T19:18:46.992Z,51.00
2023-02-11T19:21:13.858Z,61.23
2023-02-11T19:23:40.822Z,81.33
2023-02-11T19:26:07.929Z,83.17
2023-02-11T19:28:37.197Z,64.73
2023-02-11T19:31:09.183Z,34.23
2023-02-11T19:33:36.833Z,24.47
2023-02-11T19:36:08.237Z,26.73
2023-02-11T19:38:35.898Z,19.90
2023-02-11T19:41:02.868Z,21.00
2023-02-11T19:43:30.433Z,23.53
2023-02-11T19:45:57.793Z,23.70
2023-02-11T19:48:25.445Z,27.63
2023-02-11T19:50:52.812Z,27.13
2023-02-11T19:53:19.834Z,30.13
2023-02-11T20:09:20.147Z,34.13
2023-02-11T20:11:47.256Z,34.07
2023-02-11T20:14:15.212Z,39.97
2023-02-11T20:16:49.176Z,46.77
2023-02-11T20:19:20.030Z,54.97
2023-02-11T20:21:48.928Z,56.30
2023-02-11T20:24:19.654Z,52.60
2023-02-11T20:26:48.506Z,46.83
2023-02-11T20:29:17.503Z,47.70
2023-02-11T20:31:44.901Z,59.33
2023-02-11T20:34:12.621Z,48.13
2023-02-11T20:36:40.677Z,55.13
2023-02-11T20:39:08.186Z,58.00
2023-02-11T20:41:39.221Z,59.57
2023-02-11T20:44:09.988Z,59.50
2023-02-11T20:46:40.170Z,80.40
2023-02-11T20:49:08.876Z,88.40
2023-02-11T20:51:37.389Z,92.10
2023-02-11T20:54:07.627Z,76.93
2023-02-11T20:56:36.949Z,47.87
2023-02-11T20:59:05.943Z,40.70
2023-02-11T21:01:35.910Z,38.93
2023-02-11T21:04:06.310Z,29.50
2023-02-11T21:06:42.042Z,25.73
2023-02-11T21:09:13.148Z,24.13
2023-02-11T21:11:40.345Z,26.47
2023-02-11T21:14:07.765Z,30.30
2023-02-11T21:16:34.602Z,23.30
2023-02-11T21:19:02.896Z,26.80
2023-02-11T21:21:29.866Z,29.03
2023-02-11T21:23:58.440Z,27.37
2023-02-11T21:26:26.234Z,25.13
2023-02-11T21:28:55.153Z,28.50
2023-02-11T21:31:25.138Z,30.77
2023-02-11T21:33:54.553Z,34.73
2023-02-11T21:36:22.823Z,30.93
2023-02-11T21:38:50.137Z,34.20
2023-02-11T21:41:17.605Z,37.83
2023-02-11T21:43:45.121Z,30.30
2023-02-11T21:46:14.882Z,37.60
2023-02-11T21:48:42.345Z,40.03
2023-02-11T21:51:13.034Z,34.67
2023-02-11T21:53:39.952Z,27.83
2023-02-11T21:56:09.965Z,29.10
2023-02-11T21:58:36.918Z,33.90
2023-02-11T22:01:28.503Z,31.60
2023-02-11T22:03:55.747Z,37.13
2023-02-11T22:06:26.292Z,42.00
2023-02-11T22:08:54.725Z,33.23
2023-02-11T22:11:21.830Z,31.73
2023-02-11T22:13:54.070Z,28.87
2023-02-11T22:16:21.294Z,31.30
2023-02-11T22:18:48.305Z,37.50
2023-02-11T22:21:17.475Z,33.83
2023-02-11T22:23:45.191Z,34.57
2023-02-11T22:26:18.399Z,33.93
2023-02-11T22:28:45.667Z,32.53
2023-02-11T22:31:19.402Z,30.77
2023-02-11T22:33:46.932Z,25.83
2023-02-11T22:36:26.297Z,24.73
2023-02-11T22:38:54.150Z,22.70
2023-02-11T22:41:22.597Z,25.57
2023-02-11T22:43:49.544Z,20.87
2023-02-11T22:46:18.455Z,20.30
2023-02-11T22:48:45.959Z,18.67
2023-02-11T22:51:16.367Z,16.23
2023-02-11T22:53:46.509Z,17.77
2023-02-11T22:56:15.596Z,19.40
2023-02-11T22:58:43.504Z,18.93
2023-02-11T23:01:11.535Z,17.07
2023-02-11T23:03:38.913Z,13.90
2023-02-11T23:06:06.417Z,19.03
2023-02-11T23:08:33.646Z,16.83
2023-02-11T23:11:09.825Z,18.43
2023-02-11T23:13:38.779Z,18.77
2023-02-11T23:16:08.621Z,19.10
2023-02-11T23:18:36.817Z,20.53
2023-02-11T23:21:06.804Z,20.37
2023-02-11T23:23:34.630Z,21.83
2023-02-11T23:26:02.082Z,21.43
2023-02-11T23:28:29.724Z,27.57
2023-02-11T23:30:56.696Z,31.43
2023-02-11T23:33:23.672Z,27.77
2023-02-11T23:35:50.578Z,26.43
2023-02-11T23:38:17.572Z,31.03
2023-02-11T23:40:44.396Z,30.53
2023-02-11T23:43:11.259Z,28.07
2023-02-11T23:45:38.144Z,31.70
2023-02-11T23:48:05.036Z,28.67
2023-02-11T23:50:32.659Z,28.27
2023-02-11T23:52:59.545Z,22.60
2023-02-11T23:55:26.381Z,28.03
2023-02-11T23:57:53.235Z,26.53
